Terminal Aerodrome Forecast
Issued by NWS

Home | Current Version | Previous Version | Text Only | Print | Product List | Glossary Off
Versions: 1 2 3 4 5 6 7 8 9 10 11 12

000
FTUS43 KGRB 221100
TAFAUW
TAF
KAUW 221122Z 2212/2312 30011G18KT P6SM -SHSN BKN035 BKN050
      TEMPO 2212/2215 4SM -SHSN BKN029
     FM221500 30014G23KT P6SM -SHRASN SCT025 BKN035
      TEMPO 2216/2220 BKN025
     FM230100 32007KT P6SM SCT035 BKN070
     FM230600 32005KT P6SM SCT040 SCT070=

USA.gov is the U.S. government's official web portal to all federal, state and local government web resources and services.